Terminal Aerodrome Forecast
Issued by NWS

Home | Current Version | Previous Version | Graphics & Text | Print | Product List | Glossary On
Versions: 1 2 3 4 5 6 7 8 9 10 11 12 13 14 15 16 17 18 19 20 21
000
FTUS43 KLSX 251124
TAFSUS
TAF
KSUS 251124Z 2512/2612 03007KT P6SM VCTS SCT010 OVC035CB
      TEMPO 2512/2514 3SM TSRA OVC015CB
     FM251500 34007KT P6SM BKN050
     FM260100 VRB03KT P6SM BKN250=

USA.gov is the U.S. government's official web portal to all federal, state and local government web resources and services.